createdAt,value
2023-05-15T00:00:37.726Z,11.20
2023-05-15T00:03:04.800Z,11.20
2023-05-15T00:05:31.736Z,11.20
2023-05-15T00:07:58.561Z,11.20
2023-05-15T00:10:25.349Z,11.20
2023-05-15T00:12:52.032Z,11.20
2023-05-15T00:15:18.640Z,11.20
2023-05-15T00:17:45.460Z,11.20
2023-05-15T00:20:12.474Z,11.20
2023-05-15T00:22:39.092Z,11.20
2023-05-15T00:25:06.153Z,11.30
2023-05-15T00:27:33.380Z,11.30
2023-05-15T00:30:00.140Z,11.30
2023-05-15T00:32:26.892Z,11.20
2023-05-15T00:34:53.579Z,11.20
2023-05-15T00:37:20.299Z,11.20
2023-05-15T00:39:47.038Z,11.10
2023-05-15T00:42:14.420Z,11.10
2023-05-15T00:44:41.453Z,11.10
2023-05-15T00:47:10.012Z,11.10
2023-05-15T00:49:37.407Z,11.10
2023-05-15T00:52:05.538Z,11.10
2023-05-15T00:54:32.617Z,11.00
2023-05-15T00:56:59.476Z,11.10
2023-05-15T00:59:27.795Z,11.10
2023-05-15T01:01:54.598Z,11.00
2023-05-15T01:04:21.484Z,11.00
2023-05-15T01:06:53.999Z,11.00
2023-05-15T01:09:21.142Z,11.00
2023-05-15T01:11:50.437Z,11.00
2023-05-15T01:14:17.073Z,11.00
2023-05-15T01:16:43.673Z,11.00
2023-05-15T01:19:10.526Z,11.00
2023-05-15T01:21:37.567Z,11.00
2023-05-15T01:24:30.332Z,11.00
2023-05-15T01:27:03.037Z,11.00
2023-05-15T01:29:38.572Z,10.90
2023-05-15T01:32:07.185Z,10.80
2023-05-15T01:34:53.407Z,10.80
2023-05-15T01:37:22.243Z,10.70
2023-05-15T01:39:50.454Z,10.70
2023-05-15T01:42:19.435Z,10.70
2023-05-15T01:44:55.574Z,10.70
2023-05-15T01:47:26.262Z,10.60
2023-05-15T01:49:54.133Z,10.60
2023-05-15T01:52:25.377Z,10.70
2023-05-15T01:54:52.673Z,10.70
2023-05-15T01:57:20.420Z,10.70
2023-05-15T01:59:47.463Z,10.80
2023-05-15T02:02:15.350Z,10.80
2023-05-15T02:04:43.233Z,10.70
2023-05-15T02:07:09.878Z,10.80
2023-05-15T02:09:36.826Z,10.80
2023-05-15T02:12:04.224Z,10.80
2023-05-15T02:14:31.451Z,10.80
2023-05-15T02:16:58.280Z,10.80
2023-05-15T02:19:24.947Z,10.80
2023-05-15T02:21:51.642Z,10.80
2023-05-15T02:24:18.331Z,10.80
2023-05-15T02:26:53.947Z,10.80
2023-05-15T02:29:26.936Z,10.80
2023-05-15T02:32:05.263Z,10.80
2023-05-15T02:34:38.848Z,10.80
2023-05-15T02:37:06.551Z,10.90
2023-05-15T02:39:33.557Z,10.90
2023-05-15T02:42:01.495Z,10.90
2023-05-15T02:44:28.819Z,10.90
2023-05-15T02:46:55.625Z,10.80
2023-05-15T02:49:22.470Z,10.80
2023-05-15T02:51:49.159Z,10.90
2023-05-15T02:54:16.420Z,10.80
2023-05-15T02:56:43.149Z,10.70
2023-05-15T02:59:09.983Z,10.70
2023-05-15T03:01:36.767Z,10.80
2023-05-15T03:04:03.608Z,10.80
2023-05-15T03:06:31.700Z,10.80
2023-05-15T03:08:58.412Z,10.80
2023-05-15T03:11:25.078Z,10.80
2023-05-15T03:13:51.794Z,10.80
2023-05-15T03:16:18.539Z,10.90
2023-05-15T03:18:45.303Z,10.90
2023-05-15T03:21:12.880Z,10.90
2023-05-15T03:23:39.661Z,10.80
2023-05-15T03:26:06.393Z,10.80
2023-05-15T03:28:33.073Z,10.80
2023-05-15T03:30:59.745Z,10.90
2023-05-15T03:33:26.444Z,10.80
2023-05-15T03:35:53.102Z,10.80
2023-05-15T03:38:19.868Z,10.80
2023-05-15T03:40:47.479Z,10.80
2023-05-15T03:43:15.013Z,10.70
2023-05-15T03:45:41.696Z,10.70
2023-05-15T03:48:08.519Z,10.70
2023-05-15T03:50:35.386Z,10.70
2023-05-15T03:53:02.074Z,10.70
2023-05-15T03:55:28.807Z,10.70
2023-05-15T03:57:55.679Z,10.80
2023-05-15T04:00:22.678Z,10.80
2023-05-15T04:02:49.591Z,10.80
2023-05-15T04:05:16.772Z,10.90
2023-05-15T04:07:44.157Z,10.80
2023-05-15T04:10:10.998Z,10.90
2023-05-15T04:12:37.692Z,11.00
2023-05-15T04:15:21.498Z,11.00
2023-05-15T04:17:50.014Z,11.10
2023-05-15T04:20:17.745Z,11.20
2023-05-15T04:22:44.956Z,11.40
2023-05-15T04:25:12.053Z,11.90
2023-05-15T04:27:38.759Z,12.30
2023-05-15T04:30:05.800Z,12.40
2023-05-15T04:32:33.894Z,12.30
2023-05-15T04:35:01.263Z,12.10
2023-05-15T04:37:28.383Z,12.10
2023-05-15T04:39:55.394Z,12.00
2023-05-15T04:42:22.062Z,11.90
2023-05-15T04:44:48.755Z,11.80
2023-05-15T04:47:15.811Z,11.80
2023-05-15T04:49:42.525Z,11.80
2023-05-15T04:52:09.212Z,11.80
2023-05-15T04:54:35.976Z,11.80
2023-05-15T04:57:02.633Z,11.90
2023-05-15T04:59:29.752Z,11.80
2023-05-15T05:01:56.609Z,11.90
2023-05-15T05:04:23.392Z,12.00
2023-05-15T05:06:50.226Z,12.10
2023-05-15T05:09:18.413Z,12.20
2023-05-15T05:11:45.116Z,12.30
2023-05-15T05:14:12.019Z,12.40
2023-05-15T05:16:38.706Z,12.40
2023-05-15T05:19:05.859Z,12.50
2023-05-15T05:21:33.044Z,12.60
2023-05-15T05:24:01.099Z,12.60
2023-05-15T05:26:27.827Z,12.60
2023-05-15T05:28:54.568Z,13.10
2023-05-15T05:31:21.422Z,13.50
2023-05-15T05:33:49.552Z,13.60
2023-05-15T05:36:16.192Z,13.90
2023-05-15T05:38:43.157Z,14.30
2023-05-15T05:41:09.826Z,15.00
2023-05-15T05:43:36.564Z,16.00
2023-05-15T05:46:03.300Z,17.30
2023-05-15T05:48:30.841Z,18.20
2023-05-15T05:50:57.770Z,18.30
2023-05-15T05:53:24.544Z,18.20
2023-05-15T05:55:51.420Z,18.10
2023-05-15T06:00:51.167Z,17.90
2023-05-15T06:03:18.000Z,18.20
2023-05-15T06:05:44.723Z,18.00
2023-05-15T06:08:11.935Z,17.90
2023-05-15T06:10:38.700Z,17.30
2023-05-15T06:13:05.459Z,16.90
2023-05-15T06:15:32.164Z,16.40
2023-05-15T06:17:58.899Z,16.40
2023-05-15T06:20:25.831Z,16.30
2023-05-15T06:22:52.817Z,16.40
2023-05-15T06:25:19.605Z,17.20
2023-05-15T06:27:47.467Z,18.60
2023-05-15T06:30:14.178Z,19.50
2023-05-15T06:32:41.821Z,20.30
2023-05-15T06:35:09.541Z,20.10
2023-05-15T06:37:36.309Z,19.30
2023-05-15T06:40:03.456Z,18.30
2023-05-15T06:42:31.159Z,17.60
2023-05-15T06:44:57.943Z,17.00
2023-05-15T06:47:24.742Z,16.70
2023-05-15T06:49:51.488Z,16.60
2023-05-15T06:52:18.175Z,17.00
2023-05-15T06:54:44.893Z,18.10
2023-05-15T06:57:11.837Z,19.40
2023-05-15T06:59:38.516Z,20.90
2023-05-15T07:02:05.357Z,22.30
2023-05-15T07:04:32.125Z,23.40
2023-05-15T07:06:58.924Z,22.90
2023-05-15T07:09:25.593Z,21.90
2023-05-15T07:11:52.349Z,22.70
2023-05-15T07:14:18.983Z,24.80
2023-05-15T07:16:47.172Z,25.90
2023-05-15T07:19:17.537Z,27.40
2023-05-15T07:21:44.235Z,27.30
2023-05-15T07:24:10.878Z,26.90
2023-05-15T07:26:46.909Z,27.30
2023-05-15T07:29:24.022Z,26.20
2023-05-15T07:31:50.762Z,25.20
2023-05-15T07:34:17.508Z,23.40
2023-05-15T07:36:44.343Z,22.60
2023-05-15T07:39:11.077Z,22.10
2023-05-15T07:41:37.759Z,21.40
2023-05-15T07:44:04.531Z,20.40
2023-05-15T07:46:31.328Z,20.50
2023-05-15T07:48:58.125Z,21.00
2023-05-15T07:51:24.949Z,21.60
2023-05-15T07:53:51.614Z,23.70
2023-05-15T07:56:18.276Z,24.30
2023-05-15T07:58:45.079Z,25.00
2023-05-15T08:01:11.877Z,25.70
2023-05-15T08:03:38.684Z,25.50
2023-05-15T08:06:05.690Z,25.50
2023-05-15T08:08:32.375Z,24.50
2023-05-15T08:10:59.001Z,23.20
2023-05-15T08:13:25.840Z,22.50
2023-05-15T08:15:52.492Z,22.10
2023-05-15T08:18:19.139Z,22.60
2023-05-15T08:20:46.009Z,23.70
2023-05-15T08:23:15.305Z,24.30
2023-05-15T08:25:42.049Z,24.50
2023-05-15T08:28:08.683Z,24.00
2023-05-15T08:30:36.105Z,24.40
2023-05-15T08:33:02.771Z,24.40
2023-05-15T08:35:29.434Z,23.70
2023-05-15T08:37:57.326Z,23.20
2023-05-15T08:40:38.537Z,22.80
2023-05-15T08:43:13.905Z,22.20
2023-05-15T08:45:41.075Z,22.20
2023-05-15T08:48:16.752Z,22.20
2023-05-15T08:50:44.784Z,22.50
2023-05-15T08:53:14.525Z,22.80
2023-05-15T08:55:41.689Z,22.90
2023-05-15T08:58:09.059Z,22.40
2023-05-15T09:00:36.189Z,21.90
2023-05-15T09:03:03.079Z,22.30
2023-05-15T09:05:29.938Z,22.10
2023-05-15T09:07:57.094Z,22.20
2023-05-15T09:10:23.976Z,22.20
2023-05-15T09:12:51.340Z,22.40
2023-05-15T09:15:21.823Z,22.80
2023-05-15T09:17:48.782Z,22.90
2023-05-15T09:20:25.924Z,23.10
2023-05-15T09:22:52.755Z,23.90
2023-05-15T09:25:32.227Z,23.70
2023-05-15T09:27:59.429Z,23.60
2023-05-15T09:30:26.784Z,23.10
2023-05-15T09:32:54.734Z,22.60
2023-05-15T09:35:34.924Z,22.50
2023-05-15T09:38:02.474Z,22.50
2023-05-15T09:40:30.732Z,22.60
2023-05-15T09:42:58.050Z,22.40
2023-05-15T09:45:29.937Z,22.90
2023-05-15T09:47:59.424Z,22.50
2023-05-15T09:50:32.950Z,22.10
2023-05-15T09:53:00.008Z,21.50
2023-05-15T09:55:27.642Z,21.20
2023-05-15T09:58:06.619Z,21.30
2023-05-15T10:00:34.191Z,21.60
2023-05-15T10:03:02.047Z,21.60
2023-05-15T10:05:42.576Z,21.70
2023-05-15T10:08:11.019Z,21.90
2023-05-15T10:10:37.880Z,22.10
2023-05-15T10:13:06.088Z,22.10
2023-05-15T10:15:33.154Z,22.00
2023-05-15T10:18:00.544Z,22.10
2023-05-15T10:20:27.490Z,22.60
2023-05-15T10:22:56.120Z,22.40
2023-05-15T10:25:26.844Z,23.00
2023-05-15T10:27:54.031Z,23.30
2023-05-15T10:30:21.711Z,23.40
2023-05-15T10:32:49.265Z,23.60
2023-05-15T10:35:16.683Z,24.10
2023-05-15T10:37:44.368Z,23.80
2023-05-15T10:40:11.329Z,24.20
2023-05-15T10:42:38.473Z,23.80
2023-05-15T10:45:06.899Z,23.60
2023-05-15T10:47:34.407Z,23.60
2023-05-15T10:50:01.201Z,23.90
2023-05-15T10:52:27.846Z,24.40
2023-05-15T10:54:54.725Z,24.20
2023-05-15T10:57:22.554Z,23.60
2023-05-15T10:59:49.757Z,23.50
2023-05-15T11:02:23.646Z,23.00
2023-05-15T11:04:56.999Z,23.00
2023-05-15T11:07:24.338Z,22.70
2023-05-15T11:09:51.522Z,22.50
2023-05-15T11:12:18.239Z,22.70
2023-05-15T11:15:04.961Z,22.80
2023-05-15T11:17:34.507Z,23.00
2023-05-15T11:20:01.332Z,22.90
2023-05-15T11:22:31.214Z,22.90
2023-05-15T11:25:00.868Z,22.60
2023-05-15T11:27:38.317Z,23.00
2023-05-15T11:30:20.079Z,23.30
2023-05-15T11:32:46.816Z,23.00
2023-05-15T11:35:18.006Z,23.50
2023-05-15T11:37:53.945Z,23.40
2023-05-15T11:40:21.370Z,22.70
2023-05-15T11:43:00.711Z,22.10
2023-05-15T11:45:31.327Z,22.30
2023-05-15T11:48:00.416Z,22.10
2023-05-15T11:50:27.364Z,22.50
2023-05-15T11:52:54.411Z,22.80
2023-05-15T11:55:21.514Z,22.90
2023-05-15T11:57:48.313Z,23.20
2023-05-15T12:00:15.668Z,23.60
2023-05-15T12:02:42.486Z,24.00
2023-05-15T12:05:09.500Z,24.00
2023-05-15T12:07:38.124Z,24.40
2023-05-15T12:10:05.096Z,24.60
2023-05-15T12:12:32.089Z,24.70
2023-05-15T12:14:59.449Z,24.20
2023-05-15T12:17:27.667Z,24.20
2023-05-15T12:19:55.873Z,23.10
2023-05-15T12:22:22.752Z,22.60
2023-05-15T12:24:49.465Z,22.60
2023-05-15T12:27:16.450Z,22.40
2023-05-15T12:29:43.277Z,21.90
2023-05-15T12:32:10.612Z,21.30
2023-05-15T12:34:37.555Z,21.10
2023-05-15T12:37:05.304Z,20.70
2023-05-15T12:39:32.584Z,20.20
2023-05-15T12:41:59.309Z,19.90
2023-05-15T12:44:27.212Z,20.10
2023-05-15T12:46:54.592Z,20.50
2023-05-15T12:49:21.788Z,20.80
2023-05-15T12:51:48.549Z,20.80
2023-05-15T12:54:18.907Z,21.40
2023-05-15T12:56:46.147Z,21.90
2023-05-15T12:59:12.829Z,22.20
2023-05-15T13:01:40.766Z,21.40
2023-05-15T13:04:08.688Z,20.90
2023-05-15T13:06:45.851Z,21.00
2023-05-15T13:09:13.457Z,20.80
2023-05-15T13:11:43.501Z,21.00
2023-05-15T13:14:17.118Z,21.10
2023-05-15T13:16:44.972Z,21.60
2023-05-15T13:19:11.973Z,21.50
2023-05-15T13:21:38.703Z,21.60
2023-05-15T13:24:05.568Z,21.60
2023-05-15T13:26:32.297Z,20.90
2023-05-15T13:28:59.022Z,20.60
2023-05-15T13:31:26.101Z,20.60
2023-05-15T13:33:52.917Z,20.80
2023-05-15T13:36:19.570Z,20.90
2023-05-15T13:38:46.484Z,20.60
2023-05-15T13:41:13.157Z,20.80
2023-05-15T13:43:39.818Z,20.90
2023-05-15T13:46:06.523Z,20.70
2023-05-15T13:48:33.205Z,20.70
2023-05-15T13:50:59.831Z,21.20
2023-05-15T13:53:26.523Z,21.50
2023-05-15T13:55:53.400Z,21.30
2023-05-15T13:58:20.158Z,21.50
2023-05-15T14:00:47.303Z,21.70
2023-05-15T14:03:15.243Z,21.60
2023-05-15T14:05:42.310Z,21.80
2023-05-15T14:08:09.283Z,22.00
2023-05-15T14:10:36.423Z,22.40
2023-05-15T14:13:03.483Z,22.00
2023-05-15T14:15:30.169Z,21.80
2023-05-15T14:17:56.849Z,21.50
2023-05-15T14:20:23.758Z,21.30
2023-05-15T14:22:50.558Z,21.30
2023-05-15T14:25:17.244Z,21.60
2023-05-15T14:27:43.942Z,21.80
2023-05-15T14:30:10.827Z,21.70
2023-05-15T14:32:37.529Z,22.00
2023-05-15T14:35:04.652Z,21.80
2023-05-15T14:37:31.582Z,21.70
2023-05-15T14:39:58.340Z,21.50
2023-05-15T14:42:27.304Z,21.90
2023-05-15T14:44:53.984Z,22.20
2023-05-15T14:47:20.802Z,22.10
2023-05-15T14:49:47.605Z,21.40
2023-05-15T14:52:14.293Z,21.20
2023-05-15T14:54:40.917Z,21.00
2023-05-15T14:57:08.051Z,20.70
2023-05-15T14:59:34.795Z,20.60
2023-05-15T15:02:01.776Z,20.40
2023-05-15T15:04:30.536Z,20.40
2023-05-15T15:06:57.399Z,20.40
2023-05-15T15:09:24.356Z,20.30
2023-05-15T15:11:51.352Z,20.30
2023-05-15T15:14:18.243Z,20.30
2023-05-15T15:16:46.118Z,20.30
2023-05-15T15:19:13.332Z,20.40
2023-05-15T15:21:40.356Z,20.20
2023-05-15T15:24:07.264Z,20.10
2023-05-15T15:26:33.959Z,20.00
2023-05-15T15:29:03.490Z,19.80
2023-05-15T15:31:30.528Z,19.90
2023-05-15T15:33:57.628Z,20.00
2023-05-15T15:36:24.948Z,20.40
2023-05-15T15:38:51.727Z,20.40
2023-05-15T15:41:18.507Z,20.30
2023-05-15T15:43:45.492Z,20.60
2023-05-15T15:46:12.172Z,21.10
2023-05-15T15:48:38.873Z,21.20
2023-05-15T15:51:05.670Z,21.00
2023-05-15T15:53:34.415Z,21.00
2023-05-15T15:56:01.565Z,20.70
2023-05-15T15:58:28.988Z,20.10
2023-05-15T16:00:55.774Z,19.70
2023-05-15T16:03:22.604Z,19.90
2023-05-15T16:05:49.353Z,19.80
2023-05-15T16:08:16.047Z,19.70
2023-05-15T16:10:42.797Z,19.60
2023-05-15T16:13:09.605Z,19.40
2023-05-15T16:15:36.329Z,19.20
2023-05-15T16:18:03.308Z,19.10
2023-05-15T16:20:30.177Z,19.00
2023-05-15T16:22:56.888Z,18.90
2023-05-15T16:25:23.637Z,18.90
2023-05-15T16:27:50.420Z,18.80
2023-05-15T16:30:17.307Z,18.80
2023-05-15T16:32:44.125Z,18.80
2023-05-15T16:35:10.976Z,18.60
2023-05-15T16:37:37.688Z,18.70
2023-05-15T16:40:04.821Z,18.80
2023-05-15T16:42:34.951Z,18.80
2023-05-15T16:45:01.607Z,18.70
2023-05-15T16:47:28.328Z,18.80
2023-05-15T16:49:55.125Z,18.70
2023-05-15T16:52:22.254Z,18.70
2023-05-15T16:54:48.945Z,18.70
2023-05-15T16:57:15.790Z,18.70
2023-05-15T16:59:42.442Z,18.60
2023-05-15T17:02:09.290Z,18.30
2023-05-15T17:04:37.542Z,18.20
2023-05-15T17:07:04.773Z,18.20
2023-05-15T17:09:32.764Z,18.10
2023-05-15T17:11:59.792Z,18.10
2023-05-15T17:14:26.639Z,17.90
2023-05-15T17:16:53.300Z,17.80
2023-05-15T17:19:20.035Z,17.90
2023-05-15T17:21:46.925Z,17.60
2023-05-15T17:24:15.031Z,17.50
2023-05-15T17:26:42.101Z,17.40
2023-05-15T17:29:08.926Z,17.40
2023-05-15T17:31:36.813Z,17.40
2023-05-15T17:34:03.460Z,17.40
2023-05-15T17:36:30.072Z,17.40
2023-05-15T17:38:56.790Z,17.20
2023-05-15T17:41:23.428Z,17.10
2023-05-15T17:43:50.191Z,16.90
2023-05-15T17:46:16.977Z,16.90
2023-05-15T17:48:43.766Z,16.80
2023-05-15T17:51:10.469Z,16.70
2023-05-15T17:53:37.189Z,16.70
2023-05-15T17:56:03.951Z,16.70
2023-05-15T17:58:30.622Z,16.60
2023-05-15T18:00:57.336Z,16.50
2023-05-15T18:03:24.382Z,16.50
2023-05-15T18:05:51.822Z,16.40
2023-05-15T18:08:18.720Z,16.40
2023-05-15T18:10:45.951Z,16.40
2023-05-15T18:13:12.957Z,16.40
2023-05-15T18:15:39.703Z,16.30
2023-05-15T18:18:06.580Z,16.20
2023-05-15T18:20:33.261Z,16.10
2023-05-15T18:22:59.980Z,16.00
2023-05-15T18:25:27.064Z,15.90
2023-05-15T18:27:54.048Z,15.90
2023-05-15T18:30:20.694Z,15.70
2023-05-15T18:32:47.453Z,15.60
2023-05-15T18:35:14.266Z,15.40
2023-05-15T18:37:40.982Z,15.30
2023-05-15T18:40:08.121Z,15.20
2023-05-15T18:42:34.874Z,15.00
2023-05-15T18:45:02.195Z,14.80
2023-05-15T18:47:29.060Z,14.60
2023-05-15T18:49:55.978Z,14.60
2023-05-15T18:52:22.847Z,14.40
2023-05-15T18:54:49.612Z,14.20
2023-05-15T18:57:16.576Z,14.10
2023-05-15T18:59:44.469Z,14.00
2023-05-15T19:02:11.269Z,13.90
2023-05-15T19:04:38.033Z,13.70
2023-05-15T19:07:04.914Z,13.70
2023-05-15T19:09:31.617Z,13.60
2023-05-15T19:11:59.982Z,13.50
2023-05-15T19:14:26.968Z,13.40
2023-05-15T19:16:53.771Z,13.30
2023-05-15T19:19:20.604Z,13.20
2023-05-15T19:21:47.594Z,13.00
2023-05-15T19:24:14.402Z,12.90
2023-05-15T19:26:41.348Z,12.80
2023-05-15T19:29:08.107Z,12.60
2023-05-15T19:31:34.840Z,12.60
2023-05-15T19:34:01.550Z,12.40
2023-05-15T19:36:28.323Z,12.40
2023-05-15T19:38:55.124Z,12.30
2023-05-15T19:41:22.645Z,12.20
2023-05-15T19:43:51.321Z,12.10
2023-05-15T19:46:18.558Z,12.10
2023-05-15T19:48:45.672Z,12.10
2023-05-15T19:51:12.466Z,11.90
2023-05-15T19:53:39.307Z,11.90
2023-05-15T19:56:06.153Z,11.80
2023-05-15T19:58:32.932Z,11.70
2023-05-15T20:00:59.754Z,11.70
2023-05-15T20:03:32.707Z,11.60
2023-05-15T20:06:00.865Z,11.60
2023-05-15T20:08:27.625Z,11.50
2023-05-15T20:10:54.599Z,11.50
2023-05-15T20:13:21.677Z,11.50
2023-05-15T20:15:52.710Z,11.50
2023-05-15T20:18:19.655Z,11.40
2023-05-15T20:20:46.534Z,11.40
2023-05-15T20:23:13.195Z,11.30
2023-05-15T20:25:40.121Z,11.30
2023-05-15T20:28:07.007Z,11.30
2023-05-15T20:30:33.732Z,11.30
2023-05-15T20:33:00.498Z,11.20
2023-05-15T20:35:27.948Z,11.10
2023-05-15T20:37:56.408Z,11.10
2023-05-15T20:40:24.487Z,11.20
2023-05-15T20:42:51.520Z,11.10
2023-05-15T20:45:18.235Z,11.10
2023-05-15T20:47:45.254Z,11.00
2023-05-15T20:50:12.098Z,10.90
2023-05-15T20:52:38.919Z,10.80
2023-05-15T20:55:11.619Z,10.70
2023-05-15T20:57:38.457Z,10.70
2023-05-15T21:00:05.633Z,10.60
2023-05-15T21:02:32.400Z,10.50
2023-05-15T21:04:59.193Z,10.40
2023-05-15T21:07:25.790Z,10.40
2023-05-15T21:09:52.419Z,10.40
2023-05-15T21:12:19.026Z,10.30
2023-05-15T21:14:45.773Z,10.30
2023-05-15T21:17:12.517Z,10.20
2023-05-15T21:19:39.260Z,10.30
2023-05-15T21:22:05.954Z,10.20
2023-05-15T21:24:32.681Z,10.20
2023-05-15T21:26:59.414Z,10.20
2023-05-15T21:29:26.038Z,10.20
2023-05-15T21:31:52.665Z,10.20
2023-05-15T21:34:20.236Z,10.20
2023-05-15T21:36:46.974Z,10.10
2023-05-15T21:39:15.317Z,10.10
2023-05-15T21:41:42.007Z,10.10
2023-05-15T21:44:08.711Z,10.10
2023-05-15T21:46:35.482Z,10.00
2023-05-15T21:49:02.195Z,9.90
2023-05-15T21:51:28.961Z,9.80
2023-05-15T21:53:55.669Z,9.80
2023-05-15T21:56:22.643Z,9.70
2023-05-15T21:58:49.335Z,9.70
2023-05-15T22:01:17.196Z,9.70
2023-05-15T22:03:44.112Z,9.70
2023-05-15T22:06:10.926Z,9.60
2023-05-15T22:08:37.625Z,9.60
2023-05-15T22:11:04.349Z,9.50
2023-05-15T22:13:31.185Z,9.50
2023-05-15T22:15:57.980Z,9.50
2023-05-15T22:18:26.173Z,9.50
2023-05-15T22:20:52.860Z,9.50
2023-05-15T22:23:19.606Z,9.40
2023-05-15T22:25:46.309Z,9.40
2023-05-15T22:28:13.000Z,9.40
2023-05-15T22:30:39.683Z,9.40
2023-05-15T22:33:06.614Z,9.30
2023-05-15T22:35:33.213Z,9.30
2023-05-15T22:37:59.915Z,9.30
2023-05-15T22:40:26.982Z,9.30
2023-05-15T22:42:53.812Z,9.20
2023-05-15T22:45:20.533Z,9.20
2023-05-15T22:47:47.373Z,9.20
2023-05-15T22:50:14.592Z,9.20
2023-05-15T22:52:41.255Z,9.10
2023-05-15T22:55:10.221Z,9.00
2023-05-15T22:57:36.918Z,9.10
2023-05-15T23:00:05.201Z,9.10
2023-05-15T23:02:32.024Z,9.10
2023-05-15T23:04:58.664Z,9.10
2023-05-15T23:07:25.358Z,9.00
2023-05-15T23:09:52.015Z,9.00
2023-05-15T23:12:18.715Z,8.90
2023-05-15T23:14:45.365Z,8.80
2023-05-15T23:17:12.482Z,8.80
2023-05-15T23:19:39.148Z,8.70
2023-05-15T23:22:05.843Z,8.60
2023-05-15T23:24:32.463Z,8.50
2023-05-15T23:26:59.061Z,8.50
2023-05-15T23:29:25.781Z,8.40
2023-05-15T23:31:52.716Z,8.30
2023-05-15T23:34:19.695Z,8.30
2023-05-15T23:36:46.324Z,8.30
2023-05-15T23:39:12.971Z,8.40
2023-05-15T23:41:39.561Z,8.20
2023-05-15T23:44:06.501Z,8.30
2023-05-15T23:46:33.234Z,8.20
2023-05-15T23:48:59.918Z,8.20
2023-05-15T23:51:26.688Z,8.20
2023-05-15T23:53:53.346Z,8.30
2023-05-15T23:56:20.640Z,8.30
2023-05-15T23:58:47.341Z,8.30
